createdAt,value
2019-03-31T00:01:07.647Z,3.30
2019-03-31T00:03:26.070Z,3.30
2019-03-31T00:05:54.742Z,3.20
2019-03-31T00:08:23.367Z,3.10
2019-03-31T00:10:52.010Z,3.10
2019-03-31T00:13:20.608Z,3.10
2019-03-31T00:15:49.254Z,3.00
2019-03-31T00:18:17.918Z,3.00
2019-03-31T00:20:46.663Z,3.00
2019-03-31T00:23:15.321Z,3.00
2019-03-31T00:25:45.556Z,3.00
2019-03-31T00:28:14.289Z,3.00
2019-03-31T00:30:43.082Z,3.00
2019-03-31T00:33:11.704Z,3.00
2019-03-31T00:35:40.241Z,2.90
2019-03-31T00:38:08.847Z,2.90
2019-03-31T00:40:37.410Z,2.80
2019-03-31T00:43:06.120Z,2.80
2019-03-31T00:45:34.815Z,2.70
2019-03-31T00:48:03.482Z,2.70
2019-03-31T00:50:32.415Z,2.70
2019-03-31T00:53:01.105Z,2.70
2019-03-31T00:55:29.792Z,2.60
2019-03-31T00:57:58.385Z,2.60
2019-03-31T01:00:47.204Z,2.50
2019-03-31T01:03:16.246Z,2.50
2019-03-31T01:05:45.241Z,2.50
2019-03-31T01:08:14.511Z,2.40
2019-03-31T01:10:43.678Z,2.40
2019-03-31T01:13:13.120Z,2.40
2019-03-31T01:15:41.904Z,2.30
2019-03-31T01:18:10.521Z,2.30
2019-03-31T01:20:39.093Z,2.30
2019-03-31T01:23:08.356Z,2.30
2019-03-31T01:25:37.056Z,2.30
2019-03-31T01:28:05.783Z,2.30
2019-03-31T01:30:34.435Z,2.20
2019-03-31T01:33:03.176Z,2.20
2019-03-31T01:35:31.818Z,2.20
2019-03-31T01:38:00.483Z,2.10
2019-03-31T01:40:29.206Z,2.20
2019-03-31T01:42:57.973Z,2.20
2019-03-31T01:45:26.614Z,2.10
2019-03-31T01:47:55.241Z,2.10
2019-03-31T01:50:24.844Z,2.00
2019-03-31T01:52:53.648Z,2.00
2019-03-31T01:55:22.253Z,2.00
2019-03-31T01:57:50.908Z,1.90
2019-03-31T02:00:30.059Z,1.90
2019-03-31T02:02:58.649Z,1.80
2019-03-31T02:05:27.265Z,1.80
2019-03-31T02:07:55.946Z,1.70
2019-03-31T02:10:24.529Z,1.70
2019-03-31T02:12:53.195Z,1.90
2019-03-31T02:15:21.801Z,1.90
2019-03-31T02:17:50.365Z,1.80
2019-03-31T02:20:18.971Z,1.80
2019-03-31T02:22:47.545Z,1.70
2019-03-31T02:25:16.286Z,1.70
2019-03-31T02:27:44.866Z,1.60
2019-03-31T02:30:13.629Z,1.60
2019-03-31T02:32:42.372Z,1.60
2019-03-31T02:35:11.423Z,1.50
2019-03-31T02:37:40.078Z,1.50
2019-03-31T02:40:09.112Z,1.50
2019-03-31T02:42:37.816Z,1.40
2019-03-31T02:45:08.073Z,1.40
2019-03-31T02:47:36.646Z,1.40
2019-03-31T02:50:07.093Z,1.40
2019-03-31T02:52:35.754Z,1.30
2019-03-31T02:55:04.934Z,1.30
2019-03-31T02:57:34.363Z,1.30
2019-03-31T03:00:03.582Z,1.50
2019-03-31T03:02:42.307Z,1.50
2019-03-31T03:05:18.854Z,1.60
2019-03-31T03:07:37.491Z,1.60
2019-03-31T03:10:06.768Z,1.60
2019-03-31T03:12:37.351Z,1.40
2019-03-31T03:15:06.749Z,1.30
2019-03-31T03:17:35.415Z,1.30
2019-03-31T03:20:05.688Z,1.20
2019-03-31T03:22:34.258Z,1.20
2019-03-31T03:25:02.962Z,1.20
2019-03-31T03:27:31.507Z,1.30
2019-03-31T03:30:00.256Z,1.40
2019-03-31T03:32:29.401Z,1.40
2019-03-31T03:34:58.047Z,1.20
2019-03-31T03:37:26.680Z,1.20
2019-03-31T03:39:55.324Z,1.10
2019-03-31T03:42:23.904Z,1.00
2019-03-31T03:44:52.523Z,1.00
2019-03-31T03:47:21.165Z,0.90
2019-03-31T03:49:49.785Z,0.90
2019-03-31T03:52:18.373Z,0.90
2019-03-31T03:54:46.977Z,0.90
2019-03-31T03:57:15.541Z,0.90
2019-03-31T03:59:44.169Z,1.00
2019-03-31T04:02:12.969Z,1.00
2019-03-31T04:04:41.650Z,1.10
2019-03-31T04:07:10.349Z,1.00
2019-03-31T04:09:38.937Z,1.00
2019-03-31T04:12:07.506Z,0.90
2019-03-31T04:14:36.203Z,0.90
2019-03-31T04:17:04.755Z,0.80
2019-03-31T04:19:33.346Z,0.80
2019-03-31T04:22:01.943Z,0.70
2019-03-31T04:24:32.250Z,0.70
2019-03-31T04:27:01.293Z,0.70
2019-03-31T04:29:29.859Z,0.70
2019-03-31T04:31:58.538Z,0.70
2019-03-31T04:34:27.154Z,0.60
2019-03-31T04:36:55.758Z,0.60
2019-03-31T04:39:24.322Z,0.50
2019-03-31T04:41:52.925Z,0.50
2019-03-31T04:44:21.505Z,0.60
2019-03-31T04:46:50.167Z,0.60
2019-03-31T04:49:18.748Z,0.50
2019-03-31T04:51:47.354Z,0.50
2019-03-31T04:54:15.934Z,0.50
2019-03-31T04:56:44.596Z,0.50
2019-03-31T04:59:13.245Z,0.50
2019-03-31T05:01:41.883Z,0.50
2019-03-31T05:04:10.453Z,0.50
2019-03-31T05:06:39.066Z,0.50
2019-03-31T05:09:07.727Z,0.40
2019-03-31T05:11:36.339Z,0.50
2019-03-31T05:14:04.969Z,0.50
2019-03-31T05:16:33.578Z,0.60
2019-03-31T05:19:02.153Z,0.70
2019-03-31T05:21:30.766Z,0.70
2019-03-31T05:23:59.366Z,0.70
2019-03-31T05:26:27.977Z,0.80
2019-03-31T05:28:56.554Z,0.80
2019-03-31T05:31:25.238Z,0.90
2019-03-31T05:33:53.908Z,1.00
2019-03-31T05:36:22.481Z,1.10
2019-03-31T05:38:51.061Z,1.20
2019-03-31T05:41:19.762Z,1.30
2019-03-31T05:43:48.312Z,1.40
2019-03-31T05:46:16.998Z,1.50
2019-03-31T05:48:45.561Z,1.60
2019-03-31T05:51:14.132Z,1.80
2019-03-31T05:53:42.741Z,2.00
2019-03-31T05:56:11.391Z,2.20
2019-03-31T05:58:40.142Z,2.50
2019-03-31T06:01:08.741Z,3.10
2019-03-31T06:03:37.308Z,3.70
2019-03-31T06:06:05.954Z,4.40
2019-03-31T06:08:34.582Z,4.80
2019-03-31T06:11:03.161Z,5.10
2019-03-31T06:13:31.762Z,5.50
2019-03-31T06:16:00.405Z,5.60
2019-03-31T06:18:29.061Z,6.10
2019-03-31T06:20:57.613Z,5.90
2019-03-31T06:23:26.257Z,6.00
2019-03-31T06:25:54.825Z,6.20
2019-03-31T06:28:23.482Z,7.30
2019-03-31T06:30:52.126Z,7.70
2019-03-31T06:33:20.838Z,7.50
2019-03-31T06:35:49.412Z,7.30
2019-03-31T06:38:18.006Z,7.00
2019-03-31T06:40:48.225Z,7.40
2019-03-31T06:43:16.801Z,8.50
2019-03-31T06:45:45.386Z,8.80
2019-03-31T06:48:13.973Z,8.70
2019-03-31T06:50:42.557Z,8.70
2019-03-31T06:53:11.242Z,9.60
2019-03-31T06:55:39.961Z,9.90
2019-03-31T06:58:08.622Z,11.70
2019-03-31T07:00:37.263Z,11.50
2019-03-31T07:03:05.917Z,11.30
2019-03-31T07:05:34.677Z,11.50
2019-03-31T07:08:05.530Z,11.00
2019-03-31T07:10:35.100Z,12.40
2019-03-31T07:13:03.941Z,13.40
2019-03-31T07:15:32.518Z,13.80
2019-03-31T07:18:01.194Z,12.80
2019-03-31T07:20:30.092Z,12.40
2019-03-31T07:22:58.769Z,12.00
2019-03-31T07:25:27.437Z,13.30
2019-03-31T07:27:56.398Z,14.10
2019-03-31T07:30:25.223Z,15.30
2019-03-31T07:32:53.835Z,15.70
2019-03-31T07:35:22.444Z,14.90
2019-03-31T07:37:51.130Z,16.50
2019-03-31T07:40:21.901Z,15.60
2019-03-31T07:42:51.293Z,16.40
2019-03-31T07:45:20.410Z,16.50
2019-03-31T07:47:49.006Z,17.30
2019-03-31T07:50:18.529Z,18.40
2019-03-31T07:52:47.273Z,19.10
2019-03-31T07:55:16.365Z,19.40
2019-03-31T07:57:45.169Z,19.50
2019-03-31T08:00:16.801Z,19.50
2019-03-31T08:02:45.514Z,18.60
2019-03-31T08:05:14.607Z,19.70
2019-03-31T08:07:43.295Z,20.20
2019-03-31T08:10:13.926Z,19.60
2019-03-31T08:12:42.595Z,21.00
2019-03-31T08:15:11.763Z,20.20
2019-03-31T08:17:42.818Z,20.30
2019-03-31T08:20:13.294Z,21.60
2019-03-31T08:22:41.085Z,21.80
2019-03-31T08:25:10.447Z,22.30
2019-03-31T08:27:39.007Z,22.00
2019-03-31T08:30:10.828Z,23.00
2019-03-31T08:32:39.862Z,24.00
2019-03-31T08:35:10.615Z,22.20
2019-03-31T08:37:39.265Z,22.70
2019-03-31T08:40:10.191Z,23.10
2019-03-31T08:42:38.786Z,24.20
2019-03-31T08:45:08.257Z,24.50
2019-03-31T08:47:37.564Z,24.60
2019-03-31T08:50:07.215Z,23.30
2019-03-31T08:52:35.996Z,23.50
2019-03-31T08:55:05.256Z,23.80
2019-03-31T08:57:33.894Z,22.30
2019-03-31T09:00:02.922Z,23.00
2019-03-31T09:02:33.147Z,23.40
2019-03-31T09:05:01.817Z,23.50
2019-03-31T09:07:30.403Z,23.50
2019-03-31T09:09:58.996Z,23.70
2019-03-31T09:12:27.771Z,23.80
2019-03-31T09:14:56.374Z,25.30
2019-03-31T09:17:24.949Z,26.30
2019-03-31T09:19:55.272Z,27.80
2019-03-31T09:22:23.983Z,29.60
2019-03-31T09:24:52.574Z,29.80
2019-03-31T09:27:21.402Z,29.90
2019-03-31T09:29:50.010Z,28.90
2019-03-31T09:32:18.589Z,29.10
2019-03-31T09:34:47.182Z,29.60
2019-03-31T09:37:16.973Z,28.40
2019-03-31T09:39:45.577Z,29.40
2019-03-31T09:42:14.309Z,31.00
2019-03-31T09:44:42.906Z,31.50
2019-03-31T09:47:11.513Z,32.30
2019-03-31T09:49:40.104Z,31.90
2019-03-31T09:52:08.829Z,31.30
2019-03-31T09:54:37.434Z,30.10
2019-03-31T09:57:06.082Z,29.30
2019-03-31T09:59:34.694Z,30.60
2019-03-31T10:02:03.272Z,28.80
2019-03-31T10:04:31.905Z,31.00
2019-03-31T10:07:00.785Z,31.10
2019-03-31T10:09:29.470Z,30.80
2019-03-31T10:11:58.199Z,30.00
2019-03-31T10:14:26.815Z,30.90
2019-03-31T10:16:55.381Z,32.40
2019-03-31T10:19:23.982Z,32.40
2019-03-31T10:21:52.599Z,31.70
2019-03-31T10:24:21.177Z,31.20
2019-03-31T10:26:49.770Z,31.60
2019-03-31T10:29:21.423Z,32.60
2019-03-31T10:31:50.110Z,31.80
2019-03-31T10:34:18.863Z,32.90
2019-03-31T10:36:47.551Z,32.90
2019-03-31T10:39:16.147Z,34.10
2019-03-31T10:41:44.762Z,35.60
2019-03-31T10:44:13.311Z,33.40
2019-03-31T10:46:41.926Z,33.10
2019-03-31T10:49:10.583Z,34.30
2019-03-31T10:51:39.270Z,32.20
2019-03-31T10:54:07.927Z,30.60
2019-03-31T10:56:36.525Z,30.70
2019-03-31T10:59:05.287Z,30.10
2019-03-31T11:01:33.877Z,31.90
2019-03-31T11:04:02.562Z,31.10
2019-03-31T11:06:31.181Z,31.30
2019-03-31T11:08:59.766Z,32.10
2019-03-31T11:11:28.536Z,29.20
2019-03-31T11:13:57.139Z,28.10
2019-03-31T11:16:25.818Z,25.50
2019-03-31T11:18:54.386Z,23.90
2019-03-31T11:21:30.546Z,24.30
2019-03-31T11:23:59.149Z,23.80
2019-03-31T11:26:27.840Z,23.10
2019-03-31T11:28:56.406Z,22.70
2019-03-31T11:31:25.081Z,22.20
2019-03-31T11:33:53.748Z,23.60
2019-03-31T11:36:22.331Z,25.30
2019-03-31T11:38:51.042Z,27.30
2019-03-31T11:41:20.597Z,26.90
2019-03-31T11:43:49.241Z,27.10
2019-03-31T11:46:17.865Z,26.50
2019-03-31T11:48:46.451Z,27.20
2019-03-31T11:51:15.125Z,25.60
2019-03-31T11:53:43.773Z,26.90
2019-03-31T11:56:12.662Z,29.20
2019-03-31T11:58:42.132Z,30.20
2019-03-31T12:01:10.839Z,30.90
2019-03-31T12:03:40.121Z,30.00
2019-03-31T12:06:11.270Z,30.90
2019-03-31T12:08:38.946Z,31.70
2019-03-31T12:11:07.929Z,31.70
2019-03-31T12:13:36.464Z,32.00
2019-03-31T12:16:05.673Z,30.90
2019-03-31T12:18:34.320Z,30.80
2019-03-31T12:21:02.948Z,29.90
2019-03-31T12:23:31.518Z,29.70
2019-03-31T12:26:00.133Z,30.70
2019-03-31T12:28:28.795Z,32.20
2019-03-31T12:30:57.459Z,32.80
2019-03-31T12:33:26.065Z,32.90
2019-03-31T12:35:54.725Z,33.30
2019-03-31T12:38:23.372Z,33.10
2019-03-31T12:40:52.985Z,32.30
2019-03-31T12:43:21.672Z,32.20
2019-03-31T12:45:50.247Z,29.20
2019-03-31T12:48:18.946Z,27.70
2019-03-31T12:50:47.521Z,28.00
2019-03-31T12:53:16.116Z,27.00
2019-03-31T12:55:44.759Z,27.70
2019-03-31T12:58:13.421Z,29.90
2019-03-31T13:00:42.176Z,31.80
2019-03-31T13:03:10.777Z,33.00
2019-03-31T13:05:40.486Z,33.30
2019-03-31T13:08:09.047Z,34.60
2019-03-31T13:10:37.790Z,33.10
2019-03-31T13:13:06.382Z,32.80
2019-03-31T13:15:34.956Z,31.40
2019-03-31T13:18:03.646Z,30.40
2019-03-31T13:20:32.348Z,31.20
2019-03-31T13:23:00.945Z,31.60
2019-03-31T13:25:29.555Z,30.70
2019-03-31T13:27:58.170Z,31.10
2019-03-31T13:30:26.767Z,33.20
2019-03-31T13:32:57.279Z,31.00
2019-03-31T13:35:26.897Z,27.80
2019-03-31T13:38:09.933Z,27.90
2019-03-31T13:40:25.889Z,28.00
2019-03-31T13:42:54.505Z,30.40
2019-03-31T13:45:23.137Z,31.70
2019-03-31T13:47:51.749Z,29.90
2019-03-31T13:50:21.976Z,27.90
2019-03-31T13:52:50.572Z,25.60
2019-03-31T13:55:19.497Z,24.20
2019-03-31T13:57:49.383Z,23.40
2019-03-31T14:00:25.418Z,22.50
2019-03-31T14:02:51.686Z,21.90
2019-03-31T14:05:20.417Z,23.90
2019-03-31T14:07:49.178Z,24.70
2019-03-31T14:10:17.852Z,25.40
2019-03-31T14:12:46.582Z,27.00
2019-03-31T14:15:19.383Z,28.30
2019-03-31T14:17:45.965Z,30.40
2019-03-31T14:20:14.767Z,30.30
2019-03-31T14:22:43.370Z,30.20
2019-03-31T14:25:12.022Z,28.30
2019-03-31T14:27:43.212Z,26.30
2019-03-31T14:30:11.927Z,25.90
2019-03-31T14:32:40.836Z,26.10
2019-03-31T14:35:09.838Z,28.00
2019-03-31T14:37:38.484Z,30.00
2019-03-31T14:40:07.725Z,29.90
2019-03-31T14:42:36.982Z,31.30
2019-03-31T14:45:11.124Z,32.90
2019-03-31T14:47:39.702Z,31.90
2019-03-31T14:50:08.366Z,32.00
2019-03-31T14:52:53.917Z,31.90
2019-03-31T14:55:22.580Z,32.00
2019-03-31T14:57:51.174Z,31.90
2019-03-31T15:00:21.729Z,32.00
2019-03-31T15:02:51.346Z,31.30
2019-03-31T15:05:22.429Z,30.00
2019-03-31T15:07:51.009Z,29.20
2019-03-31T15:10:19.642Z,29.90
2019-03-31T15:12:48.180Z,29.60
2019-03-31T15:15:32.857Z,28.70
2019-03-31T15:18:01.424Z,27.70
2019-03-31T15:20:30.113Z,26.30
2019-03-31T15:22:58.768Z,26.60
2019-03-31T15:25:27.438Z,26.20
2019-03-31T15:27:56.044Z,26.30
2019-03-31T15:30:24.729Z,26.90
2019-03-31T15:32:55.253Z,26.30
2019-03-31T15:35:23.617Z,26.50
2019-03-31T15:37:52.246Z,26.70
2019-03-31T15:40:20.899Z,26.40
2019-03-31T15:42:49.550Z,26.40
2019-03-31T15:45:18.313Z,26.40
2019-03-31T15:47:46.902Z,26.10
2019-03-31T15:50:15.634Z,26.20
2019-03-31T15:52:45.829Z,26.10
2019-03-31T15:55:14.869Z,25.90
2019-03-31T15:57:43.454Z,26.50
2019-03-31T16:00:12.812Z,25.70
2019-03-31T16:02:41.557Z,25.40
2019-03-31T16:05:25.344Z,24.50
2019-03-31T16:07:53.993Z,24.20
2019-03-31T16:10:22.682Z,24.40
2019-03-31T16:12:51.393Z,23.80
2019-03-31T16:15:20.113Z,23.70
2019-03-31T16:17:48.785Z,23.90
2019-03-31T16:20:17.465Z,24.20
2019-03-31T16:22:46.037Z,23.70
2019-03-31T16:25:28.286Z,24.20
2019-03-31T16:27:56.869Z,23.90
2019-03-31T16:30:25.607Z,23.00
2019-03-31T16:33:15.349Z,22.40
2019-03-31T16:35:44.049Z,22.20
2019-03-31T16:38:12.617Z,21.80
2019-03-31T16:40:41.406Z,21.50
2019-03-31T16:43:10.089Z,21.60
2019-03-31T16:45:38.858Z,20.90
2019-03-31T16:48:07.566Z,20.10
2019-03-31T16:50:36.251Z,19.50
2019-03-31T16:53:04.890Z,18.80
2019-03-31T16:55:33.553Z,18.30
2019-03-31T16:58:02.130Z,18.00
2019-03-31T17:00:30.872Z,17.80
2019-03-31T17:02:59.457Z,17.50
2019-03-31T17:05:28.054Z,17.40
2019-03-31T17:07:56.715Z,17.20
2019-03-31T17:10:25.386Z,17.10
2019-03-31T17:12:53.966Z,16.90
2019-03-31T17:15:22.589Z,16.90
2019-03-31T17:17:51.181Z,16.70
2019-03-31T17:20:19.929Z,16.60
2019-03-31T17:22:48.535Z,16.50
2019-03-31T17:25:17.224Z,16.30
2019-03-31T17:27:45.821Z,16.20
2019-03-31T17:30:14.747Z,16.00
2019-03-31T17:32:43.500Z,16.00
2019-03-31T17:35:12.481Z,15.80
2019-03-31T17:37:41.009Z,15.70
2019-03-31T17:40:09.842Z,15.60
2019-03-31T17:42:38.486Z,15.50
2019-03-31T17:45:07.828Z,15.30
2019-03-31T17:47:36.438Z,15.10
2019-03-31T17:50:05.856Z,15.00
2019-03-31T17:52:34.472Z,14.80
2019-03-31T17:55:04.000Z,14.70
2019-03-31T17:57:32.597Z,14.40
2019-03-31T18:00:01.180Z,14.20
2019-03-31T18:02:29.786Z,14.00
2019-03-31T18:04:58.466Z,13.80
2019-03-31T18:07:30.096Z,13.70
2019-03-31T18:09:58.744Z,13.50
2019-03-31T18:12:27.397Z,13.30
2019-03-31T18:14:56.038Z,13.20
